Tropical Cyclones
[Index]
Main Index Home Page Stock Weather Photos Extreme Storms Discussion Storm News and Storm Chasing Reports Tropical Cyclones / Hurricanes / Typhoons Weather Data and Links Wild Fires / Bushfires Weather Observation Techniques Weather Picture Catalogue Tornado Pictures and Reports Stock Video Footage and DVDs for sale
Season 2003-2004 Tropical Cyclone TROP-LOW-02 Track Map
Season 2003-2004 Summaries (Operational Data): [AU] [SIO] [SPAC] [SH]
<<- Previous TC | 2003-2004 Season | Next TC ->>

click for intensity scale information  Lat/long Grid: Show Hide

 Date Labels: Show Hide

Operational Tropical Cyclone Data

Name: TROP-LOW-02
Number: 04PE

10 Apr 2004 00:00 UTC to 20 Apr 2004 04:00 UTC

    date/time    lat    long     hPa   cat  kts
2004-04-10 00    8.0   156.0                 30          
2004-04-10 06    8.0   156.5    1003         30          
2004-04-10 12    8.5   157.0    1005         30          
2004-04-10 18    9.0   158.5    1004         30          
2004-04-11 00   10.0   159.0    1004         30          
2004-04-11 06   10.0   159.5    1002         30          
2004-04-11 12   10.0   159.5    1004         30          
2004-04-11 18   11.0   161.0    1004         25          
2004-04-11 21   11.0   161.0    1004         25          
2004-04-12 05   11.5   161.2    1003         25          
2004-04-12 21   11.0   161.0    1002         25          
2004-04-13 02   11.0   162.0    1004         25          
2004-04-15 21   12.0   148.5    1004         30          
2004-04-16 01   11.3   148.3    1007         30          
2004-04-16 06   11.5   148.2    1006         30          
2004-04-16 12   11.7   146.5    1008         30          
2004-04-16 18   11.7   145.6    1007         25          
2004-04-17 04   12.6   144.4                 25          
2004-04-19 04   10.5   139.2    1009         20          
2004-04-20 04   10.1   138.3    1009         20          
Winds are 10-min average.

Tropical cyclone tracks developed by Michael Bath using operational warnings and advisories and Google Maps.


[Australian Severe Weather index] [Copyright Notice] [Email Contacts] [Search This Site] [Privacy Policy]
Document: tropical_cyclone_trop-low-02.htm Updated: 28 May 2013